createdAt,value
2023-03-15T00:04:04.695Z,1005.8
2023-03-15T00:09:11.147Z,1005.8
2023-03-15T00:14:17.600Z,1005.8
2023-03-15T00:20:24.207Z,1005.6
2023-03-15T00:24:30.602Z,1005.7
2023-03-15T00:29:57.008Z,1005.8
2023-03-15T00:34:43.362Z,1005.9
2023-03-15T00:39:49.763Z,1006.0
2023-03-15T00:45:20.196Z,1006.0
2023-03-15T00:50:16.580Z,1006.1
2023-03-15T00:55:08.981Z,1006.2
2023-03-15T01:00:19.923Z,1006.2
2023-03-15T01:05:22.325Z,1006.3
2023-03-15T01:10:28.716Z,1006.3
2023-03-15T01:15:35.055Z,1006.4
2023-03-15T01:20:41.423Z,1006.4
2023-03-15T01:25:47.863Z,1006.4
2023-03-15T01:30:54.191Z,1006.4
2023-03-15T01:36:00.609Z,1006.5
2023-03-15T01:41:07.046Z,1006.5
2023-03-15T01:46:13.463Z,1006.4
2023-03-15T01:51:43.887Z,1006.6
2023-03-15T01:56:26.239Z,1006.5
2023-03-15T02:01:52.669Z,1006.6
2023-03-15T02:06:38.990Z,1006.6
2023-03-15T02:11:45.389Z,1006.7
2023-03-15T02:16:51.738Z,1006.7
2023-03-15T02:21:58.270Z,1006.8
2023-03-15T02:27:04.754Z,1007.0
2023-03-15T02:32:35.105Z,1007.1
2023-03-15T02:37:37.462Z,1007.3
2023-03-15T02:42:47.862Z,1007.2
2023-03-15T02:47:20.185Z,1007.2
2023-03-15T02:52:26.578Z,1007.3
2023-03-15T02:57:43.023Z,1007.4
2023-03-15T03:03:09.466Z,1007.4
2023-03-15T03:07:55.810Z,1007.6
2023-03-15T03:13:02.214Z,1007.7
2023-03-15T03:18:08.704Z,1007.8
2023-03-15T03:23:15.073Z,1007.8
2023-03-15T03:28:21.443Z,1007.9
2023-03-15T03:33:27.814Z,1007.9
2023-03-15T03:38:34.394Z,1007.9
2023-03-15T03:43:40.755Z,1008.1
2023-03-15T03:48:47.189Z,1008.2
2023-03-15T03:54:17.853Z,1008.4
2023-03-15T04:00:00.129Z,1008.5
2023-03-15T04:04:30.530Z,1008.5
2023-03-15T04:09:12.850Z,1008.5
2023-03-15T04:14:39.434Z,1008.6
2023-03-15T04:19:45.844Z,1008.7
2023-03-15T04:24:32.206Z,1008.8
2023-03-15T04:29:38.592Z,1008.9
2023-03-15T04:35:05.067Z,1008.9
2023-03-15T04:40:53.517Z,1008.9
2023-03-15T04:45:17.829Z,1008.9
2023-03-15T04:49:54.165Z,1008.9
2023-03-15T04:55:34.863Z,1008.9
2023-03-15T05:01:17.289Z,1009.1
2023-03-15T05:05:47.609Z,1009.1
2023-03-15T05:10:50.009Z,1009.2
2023-03-15T05:15:36.355Z,1009.2
2023-03-15T05:20:42.818Z,1009.3
2023-03-15T05:25:50.194Z,1009.5
2023-03-15T05:30:58.411Z,1009.7
2023-03-15T05:37:15.328Z,1009.7
2023-03-15T05:41:29.601Z,1009.8
2023-03-15T05:46:16.012Z,1010.0
2023-03-15T05:51:22.388Z,1009.9
2023-03-15T05:56:28.777Z,1010.0
2023-03-15T06:01:35.171Z,1010.1
2023-03-15T06:06:41.576Z,1010.2
2023-03-15T06:11:47.943Z,1010.3
2023-03-15T06:17:18.395Z,1010.4
2023-03-15T06:22:00.697Z,1010.5
2023-03-15T06:27:07.074Z,1010.5
2023-03-15T06:32:13.446Z,1010.7
2023-03-15T06:37:34.254Z,1010.8
2023-03-15T06:42:25.211Z,1010.7
2023-03-15T06:47:32.635Z,1010.8
2023-03-15T06:52:39.055Z,1010.9
2023-03-15T06:58:13.044Z,1010.9
2023-03-15T07:02:55.418Z,1011.1
2023-03-15T07:08:01.794Z,1011.2
2023-03-15T07:13:08.178Z,1011.2
2023-03-15T07:18:04.550Z,1011.3
2023-03-15T07:23:20.992Z,1011.5
2023-03-15T07:28:27.429Z,1011.5
2023-03-15T07:33:53.971Z,1011.6
2023-03-15T07:38:43.038Z,1011.5
2023-03-15T07:43:46.994Z,1011.7
2023-03-15T07:48:53.393Z,1011.7
2023-03-15T07:54:19.878Z,1011.8
2023-03-15T07:59:06.147Z,1011.8
2023-03-15T08:04:37.094Z,1011.9
2023-03-15T08:12:35.338Z,1012.0
2023-03-15T08:14:49.392Z,1012.1
2023-03-15T08:19:51.767Z,1012.0
2023-03-15T08:25:02.142Z,1012.2
2023-03-15T08:29:44.542Z,1012.2
2023-03-15T08:34:50.966Z,1012.1
2023-03-15T08:40:17.393Z,1012.2
2023-03-15T08:45:03.773Z,1012.2
2023-03-15T08:50:10.205Z,1012.2
2023-03-15T08:55:16.533Z,1012.2
2023-03-15T09:00:23.239Z,1012.2
2023-03-15T09:05:29.338Z,1012.2
2023-03-15T09:10:35.737Z,1012.1
2023-03-15T09:15:42.182Z,1012.2
2023-03-15T09:20:48.588Z,1012.2
2023-03-15T09:25:56.534Z,1012.0
2023-03-15T09:31:03.029Z,1011.9
2023-03-15T09:36:09.333Z,1012.1
2023-03-15T09:41:15.725Z,1012.0
2023-03-15T09:46:22.234Z,1012.0
2023-03-15T09:51:28.516Z,1011.9
2023-03-15T09:56:34.915Z,1011.9
2023-03-15T10:02:05.558Z,1011.9
2023-03-15T10:06:48.070Z,1012.1
2023-03-15T10:12:14.500Z,1012.1
2023-03-15T10:17:00.871Z,1011.9
2023-03-15T10:22:07.292Z,1012.2
2023-03-15T10:28:15.798Z,1012.2
2023-03-15T10:32:20.056Z,1012.1
2023-03-15T10:37:26.596Z,1012.0
2023-03-15T10:42:32.981Z,1012.1
2023-03-15T10:47:50.512Z,1012.1
2023-03-15T10:52:45.801Z,1012.0
2023-03-15T10:57:52.157Z,1012.2
2023-03-15T11:02:58.588Z,1012.3
2023-03-15T11:08:29.007Z,1012.2
2023-03-15T11:13:11.332Z,1012.3
2023-03-15T11:18:17.728Z,1012.4
2023-03-15T11:23:24.238Z,1012.5
2023-03-15T11:28:59.293Z,1012.7
2023-03-15T11:33:39.153Z,1012.6
2023-03-15T11:38:45.561Z,1012.5
2023-03-15T11:44:12.007Z,1012.8
2023-03-15T11:49:18.358Z,1012.8
2023-03-15T11:54:28.733Z,1012.6
2023-03-15T11:59:11.087Z,1012.5
2023-03-15T12:05:29.632Z,1012.6
2023-03-15T12:10:36.013Z,1012.7
2023-03-15T12:14:30.279Z,1012.6
2023-03-15T12:19:36.866Z,1012.4
2023-03-15T12:24:43.264Z,1013.0
2023-03-15T12:31:21.907Z,1012.7
2023-03-15T12:34:56.184Z,1012.6
2023-03-15T12:40:02.634Z,1012.7
2023-03-15T12:45:33.054Z,1012.5
2023-03-15T12:50:15.411Z,1012.6
2023-03-15T12:55:21.821Z,1012.6
2023-03-15T13:00:28.199Z,1012.7
2023-03-15T13:05:34.595Z,1012.3
2023-03-15T13:11:04.944Z,1012.7
2023-03-15T13:15:51.571Z,1012.8
2023-03-15T13:20:58.060Z,1012.7
2023-03-15T13:26:04.459Z,1012.6
2023-03-15T13:31:10.935Z,1011.9
2023-03-15T13:36:17.272Z,1013.0
2023-03-15T13:41:23.637Z,1013.0
2023-03-15T13:46:50.132Z,1013.0
2023-03-15T13:51:36.442Z,1013.0
2023-03-15T13:57:02.985Z,1012.7
2023-03-15T14:01:49.572Z,1013.3
2023-03-15T14:06:55.992Z,1012.4
2023-03-15T14:12:22.425Z,1012.6
2023-03-15T14:18:32.926Z,1013.2
2023-03-15T14:22:15.193Z,1013.3
2023-03-15T14:28:05.704Z,1013.2
2023-03-15T14:32:28.053Z,1013.3
2023-03-15T14:37:34.464Z,1013.4
2023-03-15T14:42:40.849Z,1012.7
2023-03-15T14:48:11.367Z,1013.4
2023-03-15T14:53:13.778Z,1013.5
2023-03-15T14:58:00.097Z,1013.8
2023-03-15T15:03:06.489Z,1013.7
2023-03-15T15:08:12.926Z,1013.7
2023-03-15T15:13:43.317Z,1013.1
2023-03-15T15:18:25.701Z,1012.9
2023-03-15T15:23:32.122Z,1013.1
2023-03-15T15:28:38.523Z,1013.7
2023-03-15T15:34:08.964Z,1016.0
2023-03-15T15:38:51.288Z,1017.3
2023-03-15T15:43:57.694Z,1015.5
2023-03-15T15:49:04.101Z,1013.9
2023-03-15T15:54:10.545Z,1013.1
2023-03-15T15:59:17.451Z,1013.1
2023-03-15T16:04:23.811Z,1013.2
2023-03-15T16:09:31.850Z,1013.1
2023-03-15T16:14:38.214Z,1013.2
2023-03-15T16:19:44.597Z,1013.2
2023-03-15T16:24:51.075Z,1013.3
2023-03-15T16:29:57.363Z,1013.4
2023-03-15T16:35:03.888Z,1013.3
2023-03-15T16:40:10.351Z,1013.4
2023-03-15T16:45:16.698Z,1013.4
2023-03-15T16:50:48.661Z,1013.6
2023-03-15T16:55:31.036Z,1013.6
2023-03-15T17:01:53.148Z,1013.6
2023-03-15T17:05:47.399Z,1013.7
2023-03-15T17:10:57.831Z,1013.7
2023-03-15T17:21:05.136Z,1013.9
2023-03-15T17:26:12.695Z,1014.0
2023-03-15T17:31:24.856Z,1013.9
2023-03-15T17:36:24.725Z,1014.0
2023-03-15T17:41:32.159Z,1014.1
2023-03-15T17:46:38.585Z,1014.0
2023-03-15T17:51:44.850Z,1014.1
2023-03-15T17:56:51.356Z,1014.1
2023-03-15T18:01:57.700Z,1014.0
2023-03-15T18:07:05.714Z,1014.1
2023-03-15T18:12:14.923Z,1014.1
2023-03-15T18:17:18.699Z,1014.1
2023-03-15T18:22:25.836Z,1014.2
2023-03-15T18:27:32.349Z,1014.3
2023-03-15T18:32:38.645Z,1014.4
2023-03-15T18:37:44.980Z,1014.4
2023-03-15T18:42:51.394Z,1014.5
2023-03-15T18:47:57.794Z,1014.5
2023-03-15T18:53:06.071Z,1014.6
2023-03-15T18:58:48.736Z,1014.7
2023-03-15T19:03:56.254Z,1014.7
2023-03-15T19:09:23.809Z,1014.8
2023-03-15T19:14:10.548Z,1014.8
2023-03-15T19:19:16.090Z,1014.8
2023-03-15T19:25:35.603Z,1014.8
2023-03-15T19:35:35.490Z,1014.7
2023-03-15T19:45:10.744Z,1014.8
2023-03-15T19:52:06.921Z,1014.7
2023-03-15T19:52:18.936Z,1014.9
2023-03-15T19:57:24.587Z,1014.9
2023-03-15T20:02:33.248Z,1014.9
2023-03-15T20:05:37.237Z,1015.0
2023-03-15T20:15:30.136Z,1015.1
2023-03-15T20:31:50.978Z,1014.9
2023-03-15T20:36:03.637Z,1014.9
2023-03-15T20:41:06.963Z,1014.9
2023-03-15T20:46:17.389Z,1014.9
2023-03-15T20:51:19.779Z,1014.9
2023-03-15T20:57:00.268Z,1014.9
2023-03-15T21:02:07.664Z,1015.0
2023-03-15T21:09:06.228Z,1015.0
2023-03-15T21:13:01.463Z,1014.9
2023-03-15T21:18:07.853Z,1014.9
2023-03-15T21:23:04.191Z,1014.9
2023-03-15T21:28:44.661Z,1015.0
2023-03-15T21:33:27.027Z,1014.9
2023-03-15T21:38:33.397Z,1014.9
2023-03-15T21:44:03.929Z,1014.9
2023-03-15T21:48:50.266Z,1014.8
2023-03-15T21:53:52.643Z,1014.9
2023-03-15T21:58:59.028Z,1014.8
2023-03-15T22:04:05.567Z,1014.8
2023-03-15T22:09:45.902Z,1014.8
2023-03-15T22:15:04.783Z,1014.8
2023-03-15T22:19:59.855Z,1014.7
2023-03-15T22:25:06.202Z,1014.7
2023-03-15T22:30:12.847Z,1014.7
2023-03-15T22:35:19.229Z,1014.7
2023-03-15T22:40:25.980Z,1014.8
2023-03-15T22:45:22.031Z,1014.7
2023-03-15T22:50:38.489Z,1014.6
2023-03-15T22:55:44.820Z,1014.6
2023-03-15T23:00:51.209Z,1014.5
2023-03-15T23:05:57.654Z,1014.5
2023-03-15T23:11:03.033Z,1014.6
2023-03-15T23:16:30.549Z,1014.5
2023-03-15T23:22:29.013Z,1014.6
2023-03-15T23:26:47.280Z,1014.6
2023-03-15T23:31:29.661Z,1014.6
2023-03-15T23:36:36.002Z,1014.7
2023-03-15T23:41:42.390Z,1014.7
2023-03-15T23:46:48.848Z,1014.7
2023-03-15T23:51:55.256Z,1014.6
2023-03-15T23:56:51.764Z,1014.6
